Terminal Aerodrome Forecast
Issued by NWS

Home | Current Version | Previous Version | Graphics & Text | Print | Product List | Glossary On
Versions: 1 2 3 4 5 6 7 8 9 10 11 12 13 14 15 16 17 18 19 20 21 22 23 24
605
FTUS43 KABR 231644 AAB
TAFMBG
TAF AMD
KMBG 231644Z 2317/2412 10019G24KT P6SM BKN200
     FM231900 09018KT P6SM SCT015 BKN250
     FM240900 06011KT P6SM OVC070=

USA.gov is the U.S. government's official web portal to all federal, state and local government web resources and services.